Pagina principale
METAR-TAF:

METAR-TAF

Aeroporti :

Cannes, Francia

latitudine: 43-33N, longitudine: 006-57E, altezza: 3 m

Osservazione

Il bollettino è stato emesso 15 minuti fa, alle 06:30 UTC
Vento 3 kt da direzioni variabili
Temperature 22°C
Umidità 46%
Pressione 1006 hPa
Visibilità 10 km o più
nessuna nube inferiore a 1500 m e nessun cumulonembo

METAR: LFMD 260630Z AUTO VRB03KT CAVOK 22/10 Q1006 NOSIG

Ora: 08:45 (06:45 UTC)

Previsione

Il bollettino è stato emesso 4 ore e 45 minuti fa, alle 02:00 UTC
Previsione valida dal 26 alle 03 UTC al 27 alle 03 UTC
Vento 6 kt da nord
Visibilità 10 km o più
nessuna nube inferiore a 1500 m e nessun cumulonembo
Evoluzione graduale
dal 26 alle 07 UTC al 26 alle 10 UTC
Vento 10 kt da sud/sud-est
Evoluzione graduale
dal 26 alle 18 UTC al 26 alle 21 UTC
Vento 3 kt da direzioni variabili

TAF: LFMD 260200Z 2603/2703 36006KT CAVOK BECMG 2607/2610 16010KT BECMG 2618/2621 VRB03KT

Osservazioni e previsioni meteorologiche di più di 4000 aeroporti (messaggi METAR e TAF).

Le stazioni disponibili sono rappresentate dai dischi gialli e rossi sulla carta.

Puntare il mouse per vedere il nome della stazione.

Clicca sopra per visualizzare le osservazioni e previsioni meteorologiche.

Per cambiare la mappa : fare clic sui pulsanti verdi con una croce nera per ingrandire, il pulsante verde con un trattino per diminuire, o sulla freccia verde per le mappe adiacenti.


METAR-TAF: